Aérodrome :
LOGIN :

S'inscrire | Disclaimer

   EN    FR    IT 

 










Légende :    VFR   VFR Marginal   IFR   IFR Intensif   IFR Très Intensif
Visi : 
Plafond : 
>= 8 km
>= 3000ft
5 à 8 km
1000 à 3000 ft
1500m à 5 km
500 à 1000 ft
800 à 1500m
200 à 500 ft
< 800m
< 200 ft
Symboles :   Orages  Brouillard  Fortes neiges  Fortes précipitations  Vent > 20 kt
SIGMETs :   Divers  Orages  Givrage  Turbulence  Onde Orograph.  Cendres Volcan.







- Altitude de l'aérodrome : 147 ft
- Code IATA : DUS


EDDL - Düsseldorf Int.

DERNIER METAR :
  • 151120Z 16007KT 130V190 9999 -RA FEW015 BKN027 05/02 Q0995 NOSIG

METARs EXPIRÉS :
  • 151050Z 17009KT 9999 -SHRA SCT014 BKN022TCU BKN032 05/02 Q0995 NOSIG
  • 151020Z 15007KT 120V180 9999 -RA FEW012 BKN036 05/02 Q0995 NOSIG
  • 150950Z 15008KT 9999 SCT022 BKN027 04/02 Q0995 NOSIG
  • 150920Z 15010KT 9999 -RA FEW010 BKN021 04/02 Q0994 NOSIG
  • 150850Z 16006KT 9999 -RA FEW010 BKN018 04/02 Q0994 NOSIG

TAF TAF EDDL
Valide du 15 à 12h jusqu'au 16 à 18h UTC


151100Z 1512/1618 18008KT 9999 SCT020 BKN025
BECMG 1513/1516 VRB03KT
TEMPO 1516/1518 BKN012
BECMG 1518/1521 BKN012
TEMPO 1520/1612 3000 -RA BR BKN006
BECMG 1607/1610 24007KT
BECMG 1612/1615 BKN020
Pas de NOTAMs connus pour ce terrain.



MET'MAP, la Météo Aéronautique d'un coup d'oeil ! - Copyright ORBIFLY Décembre 2007 - Disclaimer

ORBIFLY MET'MAP TEAM :

Programmation & Développement : Alexandra Zaïnal
Conception & Développement : Baudouin d'Aumeries
Co-Programmation & Développement : Marc-Olivier Méhu
Soutien technique & logistique : Manuel Goepfert

Contact : metmap@orbifly.com




SOURCES & CREDITS :

   NOAA